Time;durP1;ratioP1;P1;durP2;ratioP2;P2;SDS_P1;SDS_P2;PMS_P1;PMS_P2;Temp;Humidity;BMP_temperature;BMP_pressure;BME280_temperature;BME280_humidity;BME280_pressure;Samples;Min_cycle;Max_cycle;Signal;HPM_P1;HPM_P2
2021/03/03 00:02:15;;;;;;;192.98;79.25;;;;;;;7.24;65.32;101102.88;5010368;28;20449;-77
2021/03/03 00:04:42;;;;;;;192.95;76.88;;;;;;;7.19;65.18;101105.34;5012788;28;20041;-77
2021/03/03 00:07:09;;;;;;;181.88;74.10;;;;;;;7.09;65.61;101097.25;5026887;28;20045;-78
2021/03/03 00:09:35;;;;;;;186.15;77.03;;;;;;;6.79;66.56;101085.09;5031103;28;20388;-76
2021/03/03 00:12:02;;;;;;;189.65;78.00;;;;;;;6.99;66.21;101091.78;5030945;28;20045;-77
2021/03/03 00:14:30;;;;;;;180.73;76.05;;;;;;;6.87;66.49;101088.81;5019466;28;20529;-77
2021/03/03 00:16:57;;;;;;;186.80;74.95;;;;;;;6.98;66.07;101094.31;5031209;28;20057;-77
2021/03/03 00:19:24;;;;;;;188.25;76.72;;;;;;;7.33;65.04;101083.22;5032444;28;20122;-77
2021/03/03 00:21:50;;;;;;;176.50;77.50;;;;;;;7.45;64.15;101086.16;5034484;28;20041;-75
2021/03/03 00:24:18;;;;;;;181.75;75.97;;;;;;;7.38;64.05;101088.56;5021100;28;20388;-76
2021/03/03 00:26:44;;;;;;;190.05;78.22;;;;;;;6.81;66.18;101092.94;5032337;28;20496;-77
2021/03/03 00:29:12;;;;;;;193.13;77.50;;;;;;;6.75;66.37;101088.44;5017838;28;20061;-77
2021/03/03 00:31:39;;;;;;;200.98;78.60;;;;;;;6.63;66.77;101088.06;5039403;28;20115;-77
2021/03/03 00:34:06;;;;;;;203.57;78.55;;;;;;;6.59;66.90;101094.00;5036570;28;20055;-76
2021/03/03 00:36:35;;;;;;;194.93;78.07;;;;;;;6.58;67.14;101090.53;5037398;28;20401;-77
2021/03/03 00:39:03;;;;;;;201.73;77.80;;;;;;;6.60;67.04;101087.09;5038994;28;20503;-77
2021/03/03 00:41:29;;;;;;;204.45;80.70;;;;;;;6.96;66.35;101094.25;5026318;28;20063;-77
2021/03/03 00:43:56;;;;;;;213.45;79.75;;;;;;;6.88;66.11;101090.56;5034441;28;20104;-76
2021/03/03 00:46:23;;;;;;;205.18;80.97;;;;;;;6.91;66.28;101095.84;5019207;28;20444;-77
2021/03/03 00:48:49;;;;;;;187.10;77.97;;;;;;;6.40;67.48;101094.25;5031723;28;20059;-79
2021/03/03 00:51:16;;;;;;;196.82;77.60;;;;;;;6.42;68.42;101098.69;5039212;28;20060;-77
2021/03/03 00:53:44;;;;;;;194.45;78.47;;;;;;;6.94;66.46;101093.34;5035011;28;20479;-77
2021/03/03 00:56:11;;;;;;;205.00;79.60;;;;;;;6.96;65.94;101096.88;5034932;28;20088;-77
2021/03/03 00:58:38;;;;;;;207.20;79.65;;;;;;;7.19;65.81;101092.34;5035933;28;20471;-77
2021/03/03 01:01:04;;;;;;;201.48;77.25;;;;;;;7.29;65.55;101091.75;5029154;28;20407;-77
2021/03/03 01:03:31;;;;;;;186.85;77.13;;;;;;;7.28;65.27;101083.94;5024143;28;20055;-77
2021/03/03 01:05:58;;;;;;;198.23;80.05;;;;;;;7.03;66.23;101084.06;5036837;28;20067;-77
2021/03/03 01:08:24;;;;;;;193.20;77.53;;;;;;;7.07;65.70;101096.31;5022808;28;20129;-77
2021/03/03 01:10:51;;;;;;;209.68;81.35;;;;;;;7.04;65.68;101083.22;5017529;28;20380;-77
2021/03/03 01:13:18;;;;;;;195.82;77.25;;;;;;;6.94;66.56;101080.38;5048112;28;20056;-77
2021/03/03 01:15:44;;;;;;;202.57;80.63;;;;;;;7.09;65.66;101071.25;5039556;28;20055;-76
2021/03/03 01:18:11;;;;;;;200.13;80.57;;;;;;;7.15;65.15;101074.88;5032464;28;20419;-78
2021/03/03 01:20:39;;;;;;;198.13;78.30;;;;;;;7.26;65.22;101072.59;5036161;28;20079;-76
2021/03/03 01:23:07;;;;;;;199.88;79.07;;;;;;;7.34;65.18;101077.16;5021799;28;20396;-79
2021/03/03 01:25:34;;;;;;;211.68;80.43;;;;;;;7.14;65.95;101067.94;5028881;28;20041;-76
2021/03/03 01:28:01;;;;;;;190.45;77.47;;;;;;;7.38;64.89;101068.63;5036425;28;20052;-76
2021/03/03 01:30:27;;;;;;;199.27;78.10;;;;;;;7.42;64.74;101078.28;5028593;28;20133;-77
2021/03/03 01:32:54;;;;;;;197.23;77.82;;;;;;;7.45;64.81;101074.84;5016877;28;20744;-78
2021/03/03 01:35:20;;;;;;;191.02;77.63;;;;;;;7.44;64.73;101063.56;5022039;28;20128;-78
2021/03/03 01:37:48;;;;;;;189.38;77.75;;;;;;;7.50;64.55;101062.88;5053461;28;20164;-77
2021/03/03 01:40:15;;;;;;;203.25;80.00;;;;;;;6.95;66.11;101050.06;5033880;28;20064;-77
2021/03/03 01:42:41;;;;;;;199.45;80.57;;;;;;;7.27;65.12;101046.66;5040970;28;20224;-77
2021/03/03 01:45:08;;;;;;;203.25;77.78;;;;;;;7.07;65.35;101053.00;5025856;28;20056;-77
2021/03/03 01:47:35;;;;;;;191.80;77.95;;;;;;;7.20;65.39;101056.81;5022188;28;20060;-78
2021/03/03 01:50:08;;;;;;;211.48;84.10;;;;;;;7.00;65.98;101056.28;5035497;28;20049;-78
2021/03/03 01:52:38;;;;;;;219.18;81.35;;;;;;;6.85;66.35;101051.53;5036475;28;20141;-78
2021/03/03 01:55:05;;;;;;;214.80;79.72;;;;;;;6.76;66.56;101051.22;5030199;28;20061;-77
2021/03/03 01:57:32;;;;;;;207.60;77.97;;;;;;;6.82;66.13;101053.13;5027789;28;20049;-77
2021/03/03 01:59:59;;;;;;;211.65;79.70;;;;;;;6.72;66.83;101049.38;5036720;28;20148;-77
2021/03/03 02:02:27;;;;;;;214.60;81.10;;;;;;;6.76;66.98;101059.03;5032148;28;20068;-77
2021/03/03 02:04:55;;;;;;;219.07;83.15;;;;;;;6.80;66.64;101052.22;5034653;28;20182;-77
2021/03/03 02:07:33;;;;;;;214.73;82.55;;;;;;;6.87;66.96;101046.34;5032401;28;20062;-77
2021/03/03 02:10:06;;;;;;;226.30;85.20;;;;;;;6.99;66.63;101052.81;5039463;28;20041;-77
2021/03/03 02:12:56;;;;;;;217.30;80.05;;;;;;;6.88;66.55;101063.72;5031407;28;20124;-77
2021/03/03 02:15:23;;;;;;;209.40;79.95;;;;;;;7.10;66.38;101060.03;5032828;28;20064;-77
2021/03/03 02:17:53;;;;;;;212.00;83.25;;;;;;;7.14;66.18;101054.06;5038210;28;20072;-78
2021/03/03 02:20:25;;;;;;;204.50;79.63;;;;;;;7.29;65.75;101044.97;5006867;28;20072;-77
2021/03/03 02:23:16;;;;;;;200.87;77.20;;;;;;;7.05;65.97;101041.69;5033568;28;20102;-77
2021/03/03 02:25:44;;;;;;;213.95;80.72;;;;;;;7.20;65.46;101046.44;5032833;28;20131;-77
2021/03/03 02:28:12;;;;;;;213.73;80.80;;;;;;;7.29;65.72;101038.91;5016060;28;20139;-77
2021/03/03 02:30:41;;;;;;;212.13;81.80;;;;;;;7.36;65.20;101031.31;5034302;28;20152;-77
2021/03/03 02:33:10;;;;;;;193.85;76.78;;;;;;;7.43;65.10;101035.81;5017702;28;20077;-77
2021/03/03 02:35:38;;;;;;;199.32;76.47;;;;;;;7.37;65.16;101032.19;4995900;28;20108;-78
2021/03/03 02:38:06;;;;;;;207.77;81.60;;;;;;;7.61;64.28;101034.56;4995483;28;20598;-78
2021/03/03 02:40:33;;;;;;;214.57;83.28;;;;;;;7.30;65.14;101028.53;4984793;28;20049;-76
2021/03/03 02:43:01;;;;;;;201.57;80.10;;;;;;;7.34;64.99;101024.28;4993970;28;20053;-77
2021/03/03 02:45:28;;;;;;;196.25;76.95;;;;;;;7.22;65.87;101019.66;4990212;28;20060;-77
2021/03/03 02:47:56;;;;;;;204.43;77.30;;;;;;;6.45;68.15;101026.09;5012317;28;20437;-77
2021/03/03 02:50:23;;;;;;;209.55;79.68;;;;;;;6.57;68.03;101023.84;4980338;28;20085;-77
2021/03/03 02:52:51;;;;;;;211.68;79.97;;;;;;;6.72;67.41;101028.59;4999164;28;20050;-76
2021/03/03 02:55:19;;;;;;;214.73;76.68;;;;;;;6.79;67.32;101014.97;5017302;28;20062;-77
2021/03/03 02:57:45;;;;;;;211.68;78.75;;;;;;;6.87;67.41;101013.47;4980251;28;20061;-77
2021/03/03 03:00:19;;;;;;;219.10;80.30;;;;;;;6.96;66.94;101010.25;4993068;28;20063;-77
2021/03/03 03:02:49;;;;;;;219.20;79.85;;;;;;;6.76;67.28;101014.03;4995459;28;20053;-77
2021/03/03 03:05:17;;;;;;;215.60;78.82;;;;;;;6.92;66.65;101005.81;4992951;28;20504;-76
2021/03/03 03:07:48;;;;;;;205.43;75.22;;;;;;;6.98;66.91;100999.06;5049401;28;20491;-77
2021/03/03 03:10:20;;;;;;;207.00;75.32;;;;;;;6.93;66.41;100997.19;5014198;28;20076;-78
2021/03/03 03:12:52;;;;;;;201.00;76.60;;;;;;;7.11;65.96;101004.59;5036209;28;20042;-77
2021/03/03 03:15:22;;;;;;;215.32;79.13;;;;;;;7.04;66.09;100994.88;5032188;28;20036;-77
2021/03/03 03:17:54;;;;;;;201.00;77.90;;;;;;;6.86;66.35;100990.91;5037067;28;20049;-77
2021/03/03 03:20:21;;;;;;;195.70;76.03;;;;;;;6.96;66.63;100984.25;5036000;28;20146;-77
2021/03/03 03:22:48;;;;;;;191.60;74.13;;;;;;;6.77;67.55;100979.41;5011243;28;21697;-77
2021/03/03 03:25:16;;;;;;;204.43;78.18;;;;;;;7.04;66.65;100989.69;5026971;28;20519;-77
2021/03/03 03:27:44;;;;;;;203.35;76.68;;;;;;;7.08;66.35;100992.41;5033134;28;20057;-77
2021/03/03 03:30:12;;;;;;;213.77;80.10;;;;;;;7.15;65.89;100990.84;5035923;28;20500;-77
2021/03/03 03:32:41;;;;;;;202.32;78.72;;;;;;;7.13;66.16;100989.94;5037364;28;20391;-77
2021/03/03 03:35:09;;;;;;;200.85;75.90;;;;;;;7.20;65.73;100990.13;5026104;28;20041;-77
2021/03/03 03:37:39;;;;;;;195.30;74.45;;;;;;;7.11;65.45;100999.41;5037876;28;20499;-77
2021/03/03 03:40:07;;;;;;;197.88;75.85;;;;;;;6.98;65.85;100993.88;5031290;28;20057;-77
2021/03/03 03:42:35;;;;;;;225.52;82.30;;;;;;;6.79;66.63;100986.41;5020123;28;20048;-77
2021/03/03 03:45:04;;;;;;;209.02;77.88;;;;;;;7.02;65.99;100989.63;5021608;28;20056;-77
2021/03/03 03:47:31;;;;;;;224.70;83.65;;;;;;;6.78;66.77;100991.56;5032566;28;20045;-77
2021/03/03 03:50:01;;;;;;;235.25;82.70;;;;;;;6.42;68.00;100994.84;5034285;28;20114;-77
2021/03/03 03:52:29;;;;;;;224.75;80.68;;;;;;;6.36;68.30;100991.19;5029339;28;20130;-77
2021/03/03 03:54:55;;;;;;;258.17;88.18;;;;;;;5.81;70.54;100994.59;5031170;28;20144;-77
2021/03/03 03:57:23;;;;;;;238.25;84.72;;;;;;;6.36;69.40;100994.66;5013574;28;20058;-77
2021/03/03 03:59:50;;;;;;;268.25;88.55;;;;;;;5.92;71.06;100987.22;5034850;28;20049;-77
2021/03/03 04:02:16;;;;;;;254.63;83.13;;;;;;;6.02;70.69;100997.03;5042695;28;20068;-77
2021/03/03 04:04:43;;;;;;;270.10;85.88;;;;;;;6.44;69.14;100984.50;5035606;28;20053;-77
2021/03/03 04:07:09;;;;;;;260.23;84.13;;;;;;;6.61;68.49;100983.28;5020202;28;20061;-77
2021/03/03 04:09:36;;;;;;;244.07;85.40;;;;;;;6.48;68.77;100984.63;5037440;28;20053;-77
2021/03/03 04:12:03;;;;;;;259.67;85.40;;;;;;;6.58;69.04;100985.78;5036640;28;20041;-78
2021/03/03 04:14:29;;;;;;;265.20;83.68;;;;;;;6.55;68.75;100991.78;5038275;28;20056;-77
2021/03/03 04:16:56;;;;;;;249.43;83.50;;;;;;;6.78;68.21;100996.75;5035906;28;20767;-77
2021/03/03 04:19:22;;;;;;;248.35;83.07;;;;;;;6.39;69.45;100999.06;5039599;28;20874;-76
2021/03/03 04:21:49;;;;;;;256.77;84.60;;;;;;;6.16;69.79;101000.06;5032970;28;20143;-76
2021/03/03 04:24:18;;;;;;;246.15;79.75;;;;;;;6.05;70.81;100987.63;5043085;28;20053;-77
2021/03/03 04:26:45;;;;;;;249.25;75.82;;;;;;;5.90;70.77;100989.75;5020996;28;20111;-77
2021/03/03 04:29:11;;;;;;;263.02;79.38;;;;;;;6.33;70.04;100996.28;5040733;28;20460;-78
2021/03/03 04:31:37;;;;;;;275.38;81.88;;;;;;;6.08;70.78;100987.75;5024603;28;20053;-77
2021/03/03 04:34:04;;;;;;;278.30;84.72;;;;;;;5.93;71.42;100999.34;5036545;28;20160;-77
2021/03/03 04:36:31;;;;;;;288.25;86.53;;;;;;;5.31;73.27;100992.94;5035480;28;20046;-77
2021/03/03 04:38:57;;;;;;;297.05;85.05;;;;;;;5.30;73.86;100990.28;5033775;28;20045;-77
2021/03/03 04:41:23;;;;;;;300.88;88.70;;;;;;;5.25;73.75;100985.81;5033851;28;20048;-78
2021/03/03 04:43:50;;;;;;;299.92;88.40;;;;;;;4.84;75.20;100994.72;5037625;28;20579;-76
2021/03/03 04:46:16;;;;;;;266.83;81.60;;;;;;;5.36;74.30;100995.69;5036547;28;20562;-77
2021/03/03 04:48:43;;;;;;;277.27;82.07;;;;;;;5.92;72.45;100995.00;5033300;28;21331;-77
2021/03/03 04:51:10;;;;;;;273.83;83.05;;;;;;;6.23;70.92;100997.72;5032737;28;20484;-77
2021/03/03 04:53:36;;;;;;;275.27;83.43;;;;;;;6.08;71.39;101002.44;5038710;28;20048;-78
2021/03/03 04:56:02;;;;;;;263.33;80.70;;;;;;;6.42;70.28;100999.16;5040260;28;20144;-76
2021/03/03 04:58:29;;;;;;;259.83;83.80;;;;;;;6.39;69.81;100996.44;5035668;28;20060;-77
2021/03/03 05:00:55;;;;;;;280.80;82.75;;;;;;;6.42;69.85;100999.16;5037619;28;20045;-76
2021/03/03 05:03:33;;;;;;;252.95;81.88;;;;;;;6.42;69.60;100999.16;5032976;28;20364;-75
2021/03/03 05:06:04;;;;;;;258.42;80.50;;;;;;;6.40;69.72;100998.22;5030439;28;20065;-76
2021/03/03 05:08:31;;;;;;;251.48;81.07;;;;;;;6.50;69.16;101001.16;5036456;28;20053;-76
2021/03/03 05:10:57;;;;;;;254.82;77.45;;;;;;;6.18;69.57;100994.09;5044017;28;20106;-76
2021/03/03 05:13:24;;;;;;;255.00;77.57;;;;;;;6.21;69.70;100990.72;5040334;28;20054;-76
2021/03/03 05:15:50;;;;;;;283.05;83.28;;;;;;;5.88;70.66;100987.94;5038077;28;20049;-76
2021/03/03 05:18:17;;;;;;;278.50;82.13;;;;;;;5.61;72.44;100983.56;5026565;28;20727;-77
2021/03/03 05:20:44;;;;;;;275.35;82.10;;;;;;;5.50;72.35;100984.97;5023838;28;20050;-76
2021/03/03 05:23:11;;;;;;;268.77;79.53;;;;;;;5.76;71.68;100982.31;5024685;28;20056;-76
2021/03/03 05:25:38;;;;;;;278.23;78.35;;;;;;;5.55;71.88;100987.69;5017650;28;20728;-76
2021/03/03 05:28:04;;;;;;;270.48;76.75;;;;;;;5.41;72.71;100987.25;5018737;28;20127;-77
2021/03/03 05:30:31;;;;;;;268.95;80.75;;;;;;;5.82;71.62;100983.41;5012990;28;20365;-76
2021/03/03 05:32:57;;;;;;;272.15;76.50;;;;;;;5.99;71.17;100981.41;5035314;28;20594;-76
2021/03/03 05:35:24;;;;;;;272.85;80.15;;;;;;;6.17;70.50;100983.66;5031082;28;20461;-75
2021/03/03 05:37:51;;;;;;;277.85;81.47;;;;;;;5.90;71.32;100984.56;5037407;28;20503;-76
2021/03/03 05:40:17;;;;;;;289.00;81.80;;;;;;;5.65;71.92;100987.19;5030731;28;20057;-76
2021/03/03 05:42:43;;;;;;;285.65;83.30;;;;;;;5.52;72.56;100977.22;5043919;28;20045;-76
2021/03/03 05:45:10;;;;;;;297.67;83.93;;;;;;;5.55;72.75;100980.81;5033385;28;20144;-75
2021/03/03 05:47:38;;;;;;;320.42;86.15;;;;;;;5.15;74.42;100981.16;5041015;28;20056;-75
2021/03/03 05:50:06;;;;;;;311.55;83.32;;;;;;;5.41;73.50;100982.06;5030651;28;20138;-75
2021/03/03 05:52:34;;;;;;;308.48;86.13;;;;;;;5.24;73.69;100983.19;5036040;28;20103;-75
2021/03/03 05:55:03;;;;;;;298.90;82.07;;;;;;;5.09;74.25;100977.47;5014439;28;20049;-76
2021/03/03 05:57:32;;;;;;;288.38;82.15;;;;;;;5.64;72.38;100977.63;5031682;28;20060;-75
2021/03/03 06:00:01;;;;;;;287.70;81.45;;;;;;;5.37;73.81;100972.38;5033993;28;20061;-76
2021/03/03 06:02:28;;;;;;;308.10;84.35;;;;;;;5.45;73.22;100975.25;5009837;28;20048;-76
2021/03/03 06:04:56;;;;;;;304.65;83.43;;;;;;;4.88;74.92;100974.13;5035588;28;20160;-76
2021/03/03 06:07:23;;;;;;;310.92;81.65;;;;;;;5.41;73.84;100971.69;5030564;28;20049;-75
2021/03/03 06:09:49;;;;;;;310.05;82.80;;;;;;;5.62;72.35;100963.72;5031671;28;20060;-76
2021/03/03 06:12:17;;;;;;;285.25;80.43;;;;;;;5.93;71.90;100969.13;5036140;28;20041;-75
2021/03/03 06:14:43;;;;;;;282.88;79.07;;;;;;;6.16;70.53;100968.94;5035761;28;20079;-76
2021/03/03 06:17:09;;;;;;;292.92;81.20;;;;;;;5.70;71.74;100968.34;5028143;28;20056;-76
2021/03/03 06:19:36;;;;;;;308.95;80.18;;;;;;;5.55;72.14;100966.97;5033653;28;20053;-77
2021/03/03 06:22:22;;;;;;;255.57;74.30;;;;;;;6.00;71.20;100968.44;5031542;28;20049;-76
2021/03/03 06:24:49;;;;;;;282.58;77.75;;;;;;;6.24;70.13;100968.31;5031014;28;20134;-77
2021/03/03 06:27:16;;;;;;;282.75;79.10;;;;;;;6.39;69.73;100970.50;5032231;28;20052;-77
2021/03/03 06:30:00;;;;;;;288.30;78.60;;;;;;;6.43;69.36;100972.34;5036979;28;20052;-77
2021/03/03 06:32:27;;;;;;;279.33;81.35;;;;;;;6.56;69.28;100971.91;5032647;28;20059;-77
2021/03/03 06:34:53;;;;;;;274.15;79.70;;;;;;;6.60;68.60;100968.53;5036830;28;20060;-76
2021/03/03 06:37:20;;;;;;;272.25;79.55;;;;;;;6.70;68.27;100980.06;5026534;28;20056;-76
2021/03/03 06:40:06;;;;;;;289.25;82.97;;;;;;;6.40;68.49;100983.53;5035725;28;20630;-79
2021/03/03 06:42:33;;;;;;;265.65;78.10;;;;;;;6.41;68.80;100979.22;5033964;28;20057;-76
2021/03/03 06:44:59;;;;;;;262.38;77.70;;;;;;;6.26;69.73;100990.03;5035041;28;20423;-76
2021/03/03 06:47:26;;;;;;;285.90;84.00;;;;;;;6.30;69.39;100984.09;5032486;28;20048;-76
2021/03/03 06:49:53;;;;;;;281.73;81.45;;;;;;;6.23;69.59;100979.56;5033240;28;20084;-76
2021/03/03 06:52:40;;;;;;;288.67;80.97;;;;;;;5.37;72.29;100979.31;5032237;28;20041;-76
2021/03/03 06:55:07;;;;;;;300.35;79.20;;;;;;;4.98;74.92;100992.66;5024418;28;20068;-77
2021/03/03 06:57:33;;;;;;;309.50;79.78;;;;;;;5.34;73.73;100977.47;5026670;28;20407;-76
2021/03/03 07:00:00;;;;;;;318.92;83.18;;;;;;;5.57;72.72;100983.44;5030985;28;20051;-77
2021/03/03 07:02:31;;;;;;;308.25;81.03;;;;;;;5.86;72.00;100987.84;5016959;28;20144;-76
2021/03/03 07:05:05;;;;;;;313.80;82.28;;;;;;;6.21;70.94;100994.19;5030088;28;20045;-77
2021/03/03 07:07:31;;;;;;;302.02;85.85;;;;;;;6.02;71.45;100991.84;5037946;28;20546;-76
2021/03/03 07:09:59;;;;;;;307.02;83.07;;;;;;;6.05;70.87;100984.16;5012231;28;20061;-76
2021/03/03 07:12:28;;;;;;;312.02;83.63;;;;;;;6.29;70.50;100991.81;5022845;28;20472;-77
2021/03/03 07:15:00;;;;;;;303.77;83.57;;;;;;;5.76;71.86;100990.09;5018572;28;20052;-76
2021/03/03 07:17:38;;;;;;;304.75;82.80;;;;;;;6.14;71.11;101000.91;5032068;28;20049;-76
2021/03/03 07:20:15;;;;;;;287.17;81.97;;;;;;;6.16;70.60;101000.94;5012277;28;20049;-76
2021/03/03 07:22:46;;;;;;;282.50;79.88;;;;;;;6.36;69.82;100998.97;5037522;28;20053;-75
2021/03/03 07:25:15;;;;;;;276.02;75.50;;;;;;;6.09;70.80;100999.88;5020113;28;20064;-76
2021/03/03 07:27:44;;;;;;;292.85;82.32;;;;;;;6.05;70.78;101012.69;5036418;28;20175;-76
2021/03/03 07:30:19;;;;;;;306.80;86.13;;;;;;;6.11;70.75;101012.91;5032375;28;20115;-76
2021/03/03 07:32:46;;;;;;;293.55;80.95;;;;;;;6.09;70.71;101009.38;5040946;28;20057;-76
2021/03/03 07:35:29;;;;;;;289.73;78.80;;;;;;;6.14;70.48;101016.47;5029730;28;20138;-77
2021/03/03 07:37:57;;;;;;;300.63;81.97;;;;;;;6.08;70.71;101018.00;5018566;28;20040;-76
2021/03/03 07:40:25;;;;;;;289.60;83.78;;;;;;;6.00;70.67;101016.84;5030062;28;20057;-76
2021/03/03 07:43:00;;;;;;;262.95;77.03;;;;;;;6.22;70.21;101021.03;5022924;28;20542;-76
2021/03/03 07:45:35;;;;;;;;;;;;;;;6.11;71.33;101018.09;5029336;28;20041;-77
2021/03/03 07:48:09;;;;;;;324.13;82.32;;;;;;;5.24;74.01;101017.75;5035665;28;20403;-77
2021/03/03 07:50:36;;;;;;;324.55;83.78;;;;;;;4.79;75.27;101017.00;5037765;28;20499;-76
2021/03/03 07:53:03;;;;;;;302.02;77.95;;;;;;;5.26;74.11;101021.28;5022492;28;20786;-76
2021/03/03 07:55:30;;;;;;;341.60;83.53;;;;;;;5.51;73.71;101020.41;5030568;28;20059;-76
2021/03/03 07:57:59;;;;;;;331.77;81.13;;;;;;;5.57;73.16;101027.50;5040284;28;20052;-76
2021/03/03 08:00:34;;;;;;;313.75;81.22;;;;;;;5.79;72.39;101024.81;5032780;28;20060;-76
2021/03/03 08:03:03;;;;;;;340.77;83.40;;;;;;;5.80;71.93;101023.97;5036547;28;20057;-77
2021/03/03 08:05:49;;;;;;;317.95;84.10;;;;;;;6.42;70.75;101020.81;5018431;28;20576;-78
2021/03/03 08:08:26;;;;;;;325.27;85.15;;;;;;;6.48;70.06;101025.28;5037093;28;20049;-77
2021/03/03 08:10:59;;;;;;;323.38;83.10;;;;;;;6.51;70.00;101023.69;5035105;28;20055;-77
2021/03/03 08:13:29;;;;;;;330.92;85.57;;;;;;;6.42;69.40;101028.59;5017849;28;20057;-77
2021/03/03 08:16:00;;;;;;;338.80;86.15;;;;;;;6.34;69.89;101034.38;5037269;28;20048;-78
2021/03/03 08:18:34;;;;;;;327.88;85.22;;;;;;;6.42;69.78;101022.53;5032333;28;20096;-77
2021/03/03 08:21:07;;;;;;;317.02;81.45;;;;;;;6.44;69.99;101020.84;5038507;28;20048;-78
2021/03/03 08:23:33;;;;;;;;;;;;;;;6.12;71.22;101022.44;5036794;28;20058;-77
2021/03/03 08:26:24;;;;;;;331.08;79.15;;;;;;;5.78;72.43;101024.75;5019912;28;19921;-78
2021/03/03 08:28:52;;;;;;;361.23;83.28;;;;;;;5.88;72.02;101025.13;5001726;28;20045;-77
2021/03/03 08:31:23;;;;;;;353.17;83.57;;;;;;;5.39;74.11;101024.28;5013357;28;20052;-78
2021/03/03 08:33:50;;;;;;;363.13;86.20;;;;;;;5.63;73.32;101025.13;5056440;28;20140;-78
2021/03/03 08:36:17;;;;;;;361.88;84.57;;;;;;;5.76;72.75;101018.63;5034950;28;20056;-78
2021/03/03 08:38:45;;;;;;;356.92;82.78;;;;;;;5.96;71.92;101026.25;5039817;28;20041;-76
2021/03/03 08:41:17;;;;;;;350.08;83.82;;;;;;;6.06;71.55;101024.84;5031994;28;20148;-77
2021/03/03 08:43:45;;;;;;;356.08;82.32;;;;;;;6.13;71.37;101025.09;5035937;28;20075;-78
2021/03/03 08:46:17;;;;;;;359.58;84.53;;;;;;;6.00;71.67;101022.94;5034201;28;20055;-77
2021/03/03 08:48:57;;;;;;;366.23;85.70;;;;;;;5.95;72.05;101028.78;5039702;28;20053;-77
2021/03/03 08:51:29;;;;;;;348.25;83.60;;;;;;;6.09;72.57;101025.81;5031227;28;20063;-77
2021/03/03 08:53:57;;;;;;;378.13;84.63;;;;;;;5.89;72.42;101018.25;5038839;28;20059;-77
2021/03/03 08:56:38;;;;;;;389.00;84.88;;;;;;;5.80;72.77;101023.09;5042480;28;20056;-77
2021/03/03 08:59:31;;;;;;;372.40;83.72;;;;;;;5.96;72.20;101018.47;5035113;28;20470;-78
2021/03/03 09:02:08;;;;;;;372.63;79.68;;;;;;;5.83;72.63;101029.25;5019904;28;20053;-77
2021/03/03 09:04:38;;;;;;;384.23;82.95;;;;;;;5.52;74.11;101026.44;5039197;28;20037;-78
2021/03/03 09:07:09;;;;;;;379.77;82.60;;;;;;;6.05;72.85;101020.47;5042572;28;20120;-78
2021/03/03 09:09:46;;;;;;;375.00;86.00;;;;;;;6.39;71.73;101019.81;5040278;28;20049;-80
2021/03/03 09:12:15;;;;;;;381.98;86.32;;;;;;;6.48;71.26;101023.56;5011115;28;20060;-80
2021/03/03 09:14:45;;;;;;;388.30;87.38;;;;;;;6.53;70.63;101024.59;5016341;28;20053;-77
2021/03/03 09:17:25;;;;;;;381.83;83.75;;;;;;;6.64;70.68;101024.91;5032797;28;20053;-77
2021/03/03 09:19:53;;;;;;;403.60;85.30;;;;;;;6.19;71.85;101031.31;5035957;28;20069;-79
2021/03/03 09:22:26;;;;;;;374.23;86.93;;;;;;;6.17;72.57;101028.66;5022839;28;20056;-78
2021/03/03 09:24:55;;;;;;;357.33;79.95;;;;;;;6.31;72.42;101027.38;5038740;28;20072;-79
2021/03/03 09:27:23;;;;;;;389.42;84.70;;;;;;;6.36;71.87;101023.22;5023325;28;20833;-77
2021/03/03 09:29:50;;;;;;;361.33;78.15;;;;;;;6.53;71.41;101021.09;5032403;28;20081;-76
2021/03/03 09:32:23;;;;;;;348.40;81.05;;;;;;;6.46;71.38;101019.19;5027526;28;20121;-77
2021/03/03 09:34:57;;;;;;;371.38;79.45;;;;;;;6.35;71.47;101015.38;5022403;28;20117;-77
2021/03/03 09:37:24;;;;;;;351.15;76.80;;;;;;;6.63;70.60;101020.56;5032190;28;20449;-78
2021/03/03 09:39:56;;;;;;;379.23;83.82;;;;;;;6.12;72.40;101012.06;5020970;28;20053;-76
2021/03/03 09:42:24;;;;;;;365.25;80.13;;;;;;;6.36;71.53;101007.63;5011964;28;20439;-76
2021/03/03 09:44:58;;;;;;;392.98;81.85;;;;;;;5.88;73.74;101014.75;5019897;28;20838;-77
2021/03/03 09:47:40;;;;;;;366.38;83.78;;;;;;;6.17;72.71;101007.03;5020224;28;20072;-78
2021/03/03 09:50:13;;;;;;;351.35;78.53;;;;;;;6.18;72.28;101001.91;5031621;28;20053;-77
2021/03/03 09:52:41;;;;;;;370.27;80.57;;;;;;;6.19;72.13;100997.59;5019569;28;20053;-77
2021/03/03 09:55:10;;;;;;;370.20;79.55;;;;;;;6.34;71.87;100996.31;5004103;28;20237;-75
2021/03/03 09:57:38;;;;;;;372.45;80.93;;;;;;;6.26;72.52;101002.13;5034648;28;20140;-76
2021/03/03 10:00:08;;;;;;;364.02;83.22;;;;;;;6.05;73.03;100998.00;5006424;28;20669;-79
2021/03/03 10:02:36;;;;;;;382.20;84.30;;;;;;;6.24;72.75;101006.38;5007744;28;20441;-78
2021/03/03 10:05:04;;;;;;;389.15;84.55;;;;;;;5.98;73.42;101014.22;5019296;28;20507;-77
2021/03/03 10:07:31;;;;;;;374.75;81.75;;;;;;;5.99;73.76;101013.41;4989983;28;20046;-79
2021/03/03 10:10:01;;;;;;;408.35;85.40;;;;;;;6.33;72.98;101019.66;5020156;28;20053;-75
2021/03/03 10:12:35;;;;;;;375.63;81.18;;;;;;;6.45;72.71;101020.00;5037137;28;20098;-74
2021/03/03 10:15:13;;;;;;;395.55;81.93;;;;;;;6.36;72.54;101017.13;5036717;28;20123;-78
2021/03/03 10:17:56;;;;;;;374.73;80.80;;;;;;;6.96;71.23;101012.84;5037267;28;20045;-79
2021/03/03 10:20:41;;;;;;;405.88;83.70;;;;;;;5.82;73.94;101011.03;5020344;28;20055;-77
2021/03/03 10:23:12;;;;;;;367.02;80.97;;;;;;;6.26;72.37;101007.31;5034167;28;20063;-79
2021/03/03 10:25:40;;;;;;;368.83;80.35;;;;;;;6.35;72.14;101012.78;5043625;28;20106;-74
2021/03/03 10:28:20;;;;;;;384.75;80.55;;;;;;;6.74;71.66;101007.88;5034013;28;20111;-76
2021/03/03 10:30:50;;;;;;;366.00;79.55;;;;;;;6.97;71.07;101012.91;5036736;28;20056;-75
2021/03/03 10:33:26;;;;;;;339.25;79.38;;;;;;;6.87;71.12;101018.66;5037366;28;20049;-77
2021/03/03 10:35:54;;;;;;;376.25;82.60;;;;;;;6.62;71.78;101023.13;5034191;28;20063;-78
2021/03/03 10:38:22;;;;;;;341.55;77.38;;;;;;;7.05;71.16;101020.03;5014886;28;20079;-79
2021/03/03 10:40:51;;;;;;;324.73;77.30;;;;;;;7.30;70.18;101017.25;5005810;28;20691;-77
2021/03/03 10:43:21;;;;;;;333.50;79.07;;;;;;;7.65;68.78;101016.47;5006045;28;20579;-75
2021/03/03 10:46:06;;;;;;;315.00;77.05;;;;;;;7.55;68.91;101023.97;5002666;28;20132;-77
2021/03/03 10:48:36;;;;;;;333.35;77.32;;;;;;;6.87;69.62;101017.78;5010224;28;20053;-77
2021/03/03 10:51:06;;;;;;;322.42;80.20;;;;;;;7.34;68.67;101017.38;4997064;28;20049;-78
2021/03/03 10:53:54;;;;;;;325.58;76.78;;;;;;;7.14;69.20;101005.59;4995490;28;20065;-78
2021/03/03 10:56:31;;;;;;;315.08;76.05;;;;;;;7.49;68.19;101013.41;4991492;28;20911;-76
2021/03/03 10:59:03;;;;;;;315.80;72.32;;;;;;;7.55;68.09;101018.78;4993794;28;20116;-75
2021/03/03 11:01:51;;;;;;;313.90;75.68;;;;;;;7.42;67.86;101013.28;5011067;28;20049;-76
2021/03/03 11:04:18;;;;;;;325.13;74.43;;;;;;;6.38;71.01;101012.88;4986535;28;20044;-78
2021/03/03 11:06:46;;;;;;;321.42;76.30;;;;;;;6.48;70.63;101013.19;4992330;28;20033;-76
2021/03/03 11:09:15;;;;;;;327.17;78.13;;;;;;;6.93;69.50;101004.97;5022867;28;20396;-78
2021/03/03 11:11:50;;;;;;;327.77;75.85;;;;;;;6.63;70.25;101015.34;5025724;28;20049;-79
2021/03/03 11:14:20;;;;;;;327.00;74.95;;;;;;;6.53;71.06;101022.00;5032048;28;20138;-78
2021/03/03 11:16:47;;;;;;;343.23;75.63;;;;;;;6.26;72.52;101015.97;5026134;28;20103;-78
2021/03/03 11:19:14;;;;;;;350.80;77.80;;;;;;;6.18;72.65;101008.78;5020107;28;20064;-80
2021/03/03 11:21:42;;;;;;;319.00;69.80;;;;;;;6.26;71.54;101007.31;5044612;28;20064;-80